sensor_id;sensor_type;location;lat;lon;timestamp;P1;durP1;ratioP1;P2;durP2;ratioP2
53421;SDS011;39319;52.944;5.928;2022-11-18T00:00:14;11.55;;;5.50;;
53421;SDS011;39319;52.944;5.928;2022-11-18T00:02:40;10.80;;;6.05;;
53421;SDS011;39319;52.944;5.928;2022-11-18T00:05:06;11.30;;;5.97;;
53421;SDS011;39319;52.944;5.928;2022-11-18T00:07:32;11.80;;;6.10;;
53421;SDS011;39319;52.944;5.928;2022-11-18T00:09:57;12.40;;;6.15;;
53421;SDS011;39319;52.944;5.928;2022-11-18T00:12:23;12.23;;;6.40;;
53421;SDS011;39319;52.944;5.928;2022-11-18T00:15:08;12.53;;;6.40;;
53421;SDS011;39319;52.944;5.928;2022-11-18T00:17:33;12.80;;;7.07;;
53421;SDS011;39319;52.944;5.928;2022-11-18T00:19:59;9.53;;;6.50;;
53421;SDS011;39319;52.944;5.928;2022-11-18T00:22:25;12.43;;;7.27;;
53421;SDS011;39319;52.944;5.928;2022-11-18T00:24:51;12.48;;;7.38;;
53421;SDS011;39319;52.944;5.928;2022-11-18T00:27:17;12.23;;;8.00;;
53421;SDS011;39319;52.944;5.928;2022-11-18T00:29:43;11.45;;;7.38;;
53421;SDS011;39319;52.944;5.928;2022-11-18T00:32:09;13.50;;;8.20;;
53421;SDS011;39319;52.944;5.928;2022-11-18T00:34:34;15.15;;;8.77;;
53421;SDS011;39319;52.944;5.928;2022-11-18T00:37:01;12.38;;;8.27;;
53421;SDS011;39319;52.944;5.928;2022-11-18T00:39:27;13.85;;;9.40;;
53421;SDS011;39319;52.944;5.928;2022-11-18T00:41:53;13.95;;;9.10;;
53421;SDS011;39319;52.944;5.928;2022-11-18T00:44:37;11.93;;;9.02;;
53421;SDS011;39319;52.944;5.928;2022-11-18T00:47:04;14.48;;;8.82;;
53421;SDS011;39319;52.944;5.928;2022-11-18T00:49:30;13.57;;;9.30;;
53421;SDS011;39319;52.944;5.928;2022-11-18T00:51:56;16.30;;;10.10;;
53421;SDS011;39319;52.944;5.928;2022-11-18T00:54:21;15.15;;;10.10;;
53421;SDS011;39319;52.944;5.928;2022-11-18T00:56:47;16.13;;;10.27;;
53421;SDS011;39319;52.944;5.928;2022-11-18T00:59:13;15.15;;;11.05;;
53421;SDS011;39319;52.944;5.928;2022-11-18T01:01:39;14.43;;;10.45;;
53421;SDS011;39319;52.944;5.928;2022-11-18T01:04:05;15.40;;;10.38;;
53421;SDS011;39319;52.944;5.928;2022-11-18T01:06:31;14.88;;;11.80;;
53421;SDS011;39319;52.944;5.928;2022-11-18T01:08:56;17.43;;;11.80;;
53421;SDS011;39319;52.944;5.928;2022-11-18T01:11:22;14.50;;;11.47;;
53421;SDS011;39319;52.944;5.928;2022-11-18T01:14:07;14.75;;;11.63;;
53421;SDS011;39319;52.944;5.928;2022-11-18T01:16:32;15.70;;;11.55;;
53421;SDS011;39319;52.944;5.928;2022-11-18T01:18:58;15.02;;;11.65;;
53421;SDS011;39319;52.944;5.928;2022-11-18T01:21:24;19.25;;;12.95;;
53421;SDS011;39319;52.944;5.928;2022-11-18T01:23:50;14.45;;;12.30;;
53421;SDS011;39319;52.944;5.928;2022-11-18T01:26:16;17.20;;;12.27;;
53421;SDS011;39319;52.944;5.928;2022-11-18T01:28:42;14.50;;;12.10;;
53421;SDS011;39319;52.944;5.928;2022-11-18T01:31:18;15.35;;;11.50;;
53421;SDS011;39319;52.944;5.928;2022-11-18T01:33:44;13.95;;;11.77;;
53421;SDS011;39319;52.944;5.928;2022-11-18T01:36:14;15.18;;;12.38;;
53421;SDS011;39319;52.944;5.928;2022-11-18T01:38:44;16.70;;;12.43;;
53421;SDS011;39319;52.944;5.928;2022-11-18T01:41:10;17.05;;;13.48;;
53421;SDS011;39319;52.944;5.928;2022-11-18T01:43:50;18.60;;;14.25;;
53421;SDS011;39319;52.944;5.928;2022-11-18T01:46:23;18.57;;;14.43;;
53421;SDS011;39319;52.944;5.928;2022-11-18T01:48:54;17.70;;;14.57;;
53421;SDS011;39319;52.944;5.928;2022-11-18T01:51:26;18.13;;;14.43;;
53421;SDS011;39319;52.944;5.928;2022-11-18T01:53:57;17.23;;;14.52;;
53421;SDS011;39319;52.944;5.928;2022-11-18T01:56:35;19.58;;;15.23;;
53421;SDS011;39319;52.944;5.928;2022-11-18T01:59:05;18.30;;;15.77;;
53421;SDS011;39319;52.944;5.928;2022-11-18T02:01:35;20.42;;;16.83;;
53421;SDS011;39319;52.944;5.928;2022-11-18T02:04:01;19.27;;;16.83;;
53421;SDS011;39319;52.944;5.928;2022-11-18T02:06:27;18.05;;;15.95;;
53421;SDS011;39319;52.944;5.928;2022-11-18T02:08:53;21.33;;;19.02;;
53421;SDS011;39319;52.944;5.928;2022-11-18T02:11:20;23.27;;;19.80;;
53421;SDS011;39319;52.944;5.928;2022-11-18T02:14:05;24.85;;;21.48;;
53421;SDS011;39319;52.944;5.928;2022-11-18T02:24:48;28.30;;;25.30;;
53421;SDS011;39319;52.944;5.928;2022-11-18T02:30:21;33.28;;;29.48;;
53421;SDS011;39319;52.944;5.928;2022-11-18T02:32:50;33.65;;;29.05;;
53421;SDS011;39319;52.944;5.928;2022-11-18T02:35:30;35.13;;;30.08;;
53421;SDS011;39319;52.944;5.928;2022-11-18T02:38:30;35.95;;;30.48;;
53421;SDS011;39319;52.944;5.928;2022-11-18T02:41:04;38.13;;;31.48;;
53421;SDS011;39319;52.944;5.928;2022-11-18T02:43:56;40.88;;;33.55;;
53421;SDS011;39319;52.944;5.928;2022-11-18T02:46:25;40.78;;;33.28;;
53421;SDS011;39319;52.944;5.928;2022-11-18T02:48:57;43.72;;;35.25;;
53421;SDS011;39319;52.944;5.928;2022-11-18T02:51:25;41.13;;;33.67;;
53421;SDS011;39319;52.944;5.928;2022-11-18T02:53:54;43.40;;;35.50;;
53421;SDS011;39319;52.944;5.928;2022-11-18T02:56:23;46.08;;;36.35;;
53421;SDS011;39319;52.944;5.928;2022-11-18T02:58:51;45.50;;;35.65;;
53421;SDS011;39319;52.944;5.928;2022-11-18T03:01:22;44.20;;;36.08;;
53421;SDS011;39319;52.944;5.928;2022-11-18T03:03:51;45.13;;;35.22;;
53421;SDS011;39319;52.944;5.928;2022-11-18T03:14:31;48.60;;;36.58;;
53421;SDS011;39319;52.944;5.928;2022-11-18T03:17:08;45.70;;;36.53;;
53421;SDS011;39319;52.944;5.928;2022-11-18T03:22:43;48.22;;;36.85;;
53421;SDS011;39319;52.944;5.928;2022-11-18T03:25:41;46.37;;;36.50;;
53421;SDS011;39319;52.944;5.928;2022-11-18T03:33:45;46.53;;;37.20;;
53421;SDS011;39319;52.944;5.928;2022-11-18T03:36:14;48.00;;;36.90;;
53421;SDS011;39319;52.944;5.928;2022-11-18T03:38:47;46.58;;;37.80;;
53421;SDS011;39319;52.944;5.928;2022-11-18T03:41:16;47.95;;;37.22;;
53421;SDS011;39319;52.944;5.928;2022-11-18T03:46:50;51.03;;;37.50;;
53421;SDS011;39319;52.944;5.928;2022-11-18T03:49:30;51.75;;;38.35;;
53421;SDS011;39319;52.944;5.928;2022-11-18T03:52:02;48.97;;;37.78;;
53421;SDS011;39319;52.944;5.928;2022-11-18T03:54:34;47.85;;;37.88;;
53421;SDS011;39319;52.944;5.928;2022-11-18T03:57:06;47.13;;;37.17;;
53421;SDS011;39319;52.944;5.928;2022-11-18T03:59:55;48.55;;;37.75;;
53421;SDS011;39319;52.944;5.928;2022-11-18T04:02:30;48.25;;;37.97;;
53421;SDS011;39319;52.944;5.928;2022-11-18T04:04:59;51.85;;;38.63;;
53421;SDS011;39319;52.944;5.928;2022-11-18T04:07:33;43.80;;;37.50;;
53421;SDS011;39319;52.944;5.928;2022-11-18T04:10:26;50.13;;;39.22;;
53421;SDS011;39319;52.944;5.928;2022-11-18T04:13:02;47.63;;;37.03;;
53421;SDS011;39319;52.944;5.928;2022-11-18T04:15:37;46.40;;;37.47;;
53421;SDS011;39319;52.944;5.928;2022-11-18T04:18:05;45.00;;;37.17;;
53421;SDS011;39319;52.944;5.928;2022-11-18T04:20:32;48.23;;;38.27;;
53421;SDS011;39319;52.944;5.928;2022-11-18T04:22:58;45.15;;;37.28;;
53421;SDS011;39319;52.944;5.928;2022-11-18T04:25:25;47.15;;;38.08;;
53421;SDS011;39319;52.944;5.928;2022-11-18T04:27:51;45.67;;;36.38;;
53421;SDS011;39319;52.944;5.928;2022-11-18T04:30:17;45.55;;;36.97;;
53421;SDS011;39319;52.944;5.928;2022-11-18T04:32:43;47.70;;;38.20;;
53421;SDS011;39319;52.944;5.928;2022-11-18T04:35:09;44.10;;;37.42;;
53421;SDS011;39319;52.944;5.928;2022-11-18T04:37:35;44.97;;;37.05;;
53421;SDS011;39319;52.944;5.928;2022-11-18T04:40:01;48.03;;;37.63;;
53421;SDS011;39319;52.944;5.928;2022-11-18T04:42:27;47.47;;;37.77;;
53421;SDS011;39319;52.944;5.928;2022-11-18T04:44:53;46.80;;;37.70;;
53421;SDS011;39319;52.944;5.928;2022-11-18T04:47:19;46.72;;;37.92;;
53421;SDS011;39319;52.944;5.928;2022-11-18T04:49:46;46.33;;;38.10;;
53421;SDS011;39319;52.944;5.928;2022-11-18T04:52:12;45.25;;;37.70;;
53421;SDS011;39319;52.944;5.928;2022-11-18T04:54:38;46.92;;;37.90;;
53421;SDS011;39319;52.944;5.928;2022-11-18T04:57:05;45.78;;;39.05;;
53421;SDS011;39319;52.944;5.928;2022-11-18T04:59:30;45.63;;;37.23;;
53421;SDS011;39319;52.944;5.928;2022-11-18T05:01:57;45.20;;;37.20;;
53421;SDS011;39319;52.944;5.928;2022-11-18T05:04:26;45.63;;;37.97;;
53421;SDS011;39319;52.944;5.928;2022-11-18T05:06:54;45.53;;;36.75;;
53421;SDS011;39319;52.944;5.928;2022-11-18T05:09:20;42.03;;;36.28;;
53421;SDS011;39319;52.944;5.928;2022-11-18T05:11:46;43.33;;;37.60;;
53421;SDS011;39319;52.944;5.928;2022-11-18T05:14:31;44.38;;;36.65;;
53421;SDS011;39319;52.944;5.928;2022-11-18T05:16:58;46.08;;;38.10;;
53421;SDS011;39319;52.944;5.928;2022-11-18T05:19:25;45.13;;;37.63;;
53421;SDS011;39319;52.944;5.928;2022-11-18T05:21:52;42.17;;;36.15;;
53421;SDS011;39319;52.944;5.928;2022-11-18T05:24:18;43.42;;;36.95;;
53421;SDS011;39319;52.944;5.928;2022-11-18T05:26:44;41.83;;;36.15;;
53421;SDS011;39319;52.944;5.928;2022-11-18T05:29:10;41.72;;;35.70;;
53421;SDS011;39319;52.944;5.928;2022-11-18T05:31:37;43.67;;;37.05;;
53421;SDS011;39319;52.944;5.928;2022-11-18T05:34:05;43.88;;;36.35;;
53421;SDS011;39319;52.944;5.928;2022-11-18T05:36:31;44.07;;;37.17;;
53421;SDS011;39319;52.944;5.928;2022-11-18T05:38:57;42.70;;;35.95;;
53421;SDS011;39319;52.944;5.928;2022-11-18T05:41:26;41.20;;;35.88;;
53421;SDS011;39319;52.944;5.928;2022-11-18T05:44:10;42.27;;;35.70;;
53421;SDS011;39319;52.944;5.928;2022-11-18T05:46:39;43.03;;;35.60;;
53421;SDS011;39319;52.944;5.928;2022-11-18T05:49:05;44.85;;;36.30;;
53421;SDS011;39319;52.944;5.928;2022-11-18T05:51:33;44.70;;;36.28;;
53421;SDS011;39319;52.944;5.928;2022-11-18T05:54:01;43.45;;;36.63;;
53421;SDS011;39319;52.944;5.928;2022-11-18T05:56:32;41.03;;;36.03;;
53421;SDS011;39319;52.944;5.928;2022-11-18T05:59:01;48.38;;;37.20;;
53421;SDS011;39319;52.944;5.928;2022-11-18T06:01:29;45.23;;;36.47;;
53421;SDS011;39319;52.944;5.928;2022-11-18T06:04:00;42.60;;;36.15;;
53421;SDS011;39319;52.944;5.928;2022-11-18T06:06:28;43.53;;;36.80;;
53421;SDS011;39319;52.944;5.928;2022-11-18T06:08:59;42.42;;;36.33;;
53421;SDS011;39319;52.944;5.928;2022-11-18T06:11:34;42.28;;;36.05;;
53421;SDS011;39319;52.944;5.928;2022-11-18T06:14:06;42.70;;;35.38;;
53421;SDS011;39319;52.944;5.928;2022-11-18T06:16:39;43.53;;;36.47;;
53421;SDS011;39319;52.944;5.928;2022-11-18T06:19:13;42.78;;;35.20;;
53421;SDS011;39319;52.944;5.928;2022-11-18T06:21:41;43.35;;;36.35;;
53421;SDS011;39319;52.944;5.928;2022-11-18T06:24:08;44.05;;;36.60;;
53421;SDS011;39319;52.944;5.928;2022-11-18T06:26:34;43.77;;;35.57;;
53421;SDS011;39319;52.944;5.928;2022-11-18T06:29:01;41.70;;;35.87;;
53421;SDS011;39319;52.944;5.928;2022-11-18T06:31:27;42.60;;;34.92;;
53421;SDS011;39319;52.944;5.928;2022-11-18T06:33:59;41.13;;;34.97;;
53421;SDS011;39319;52.944;5.928;2022-11-18T06:36:25;40.40;;;34.50;;
53421;SDS011;39319;52.944;5.928;2022-11-18T06:38:51;40.70;;;35.03;;
53421;SDS011;39319;52.944;5.928;2022-11-18T06:41:17;41.75;;;34.85;;
53421;SDS011;39319;52.944;5.928;2022-11-18T06:43:43;39.03;;;33.53;;
53421;SDS011;39319;52.944;5.928;2022-11-18T06:46:10;40.78;;;33.88;;
53421;SDS011;39319;52.944;5.928;2022-11-18T06:48:57;42.20;;;34.92;;
53421;SDS011;39319;52.944;5.928;2022-11-18T06:51:23;40.97;;;33.95;;
53421;SDS011;39319;52.944;5.928;2022-11-18T06:53:50;40.65;;;33.78;;
53421;SDS011;39319;52.944;5.928;2022-11-18T06:56:17;43.17;;;33.95;;
53421;SDS011;39319;52.944;5.928;2022-11-18T06:58:44;42.25;;;34.13;;
53421;SDS011;39319;52.944;5.928;2022-11-18T07:01:17;40.97;;;33.45;;
53421;SDS011;39319;52.944;5.928;2022-11-18T07:03:46;38.35;;;32.70;;
53421;SDS011;39319;52.944;5.928;2022-11-18T07:06:12;42.67;;;33.65;;
53421;SDS011;39319;52.944;5.928;2022-11-18T07:08:41;41.15;;;33.35;;
53421;SDS011;39319;52.944;5.928;2022-11-18T07:11:09;42.63;;;32.67;;
53421;SDS011;39319;52.944;5.928;2022-11-18T07:13:37;41.05;;;33.13;;
53421;SDS011;39319;52.944;5.928;2022-11-18T07:18:52;43.95;;;34.33;;
53421;SDS011;39319;52.944;5.928;2022-11-18T07:21:20;40.78;;;34.40;;
53421;SDS011;39319;52.944;5.928;2022-11-18T07:23:51;41.92;;;34.70;;
53421;SDS011;39319;52.944;5.928;2022-11-18T07:26:17;41.67;;;34.30;;
53421;SDS011;39319;52.944;5.928;2022-11-18T07:28:43;41.60;;;34.40;;
53421;SDS011;39319;52.944;5.928;2022-11-18T07:31:10;43.42;;;34.58;;
53421;SDS011;39319;52.944;5.928;2022-11-18T07:33:41;43.60;;;34.75;;
53421;SDS011;39319;52.944;5.928;2022-11-18T07:38:33;43.75;;;34.80;;
53421;SDS011;39319;52.944;5.928;2022-11-18T07:41:06;44.65;;;35.05;;
53421;SDS011;39319;52.944;5.928;2022-11-18T07:43:35;43.53;;;34.13;;
53421;SDS011;39319;52.944;5.928;2022-11-18T07:46:08;41.97;;;34.00;;
53421;SDS011;39319;52.944;5.928;2022-11-18T07:48:35;42.58;;;34.30;;
53421;SDS011;39319;52.944;5.928;2022-11-18T07:51:01;41.72;;;33.85;;
53421;SDS011;39319;52.944;5.928;2022-11-18T07:53:29;42.08;;;34.03;;
53421;SDS011;39319;52.944;5.928;2022-11-18T07:55:55;41.10;;;34.28;;
53421;SDS011;39319;52.944;5.928;2022-11-18T07:58:21;43.27;;;33.23;;
53421;SDS011;39319;52.944;5.928;2022-11-18T08:00:47;44.13;;;34.10;;
53421;SDS011;39319;52.944;5.928;2022-11-18T08:03:12;40.50;;;34.40;;
53421;SDS011;39319;52.944;5.928;2022-11-18T08:05:39;44.10;;;35.10;;
53421;SDS011;39319;52.944;5.928;2022-11-18T08:08:05;41.78;;;33.50;;
53421;SDS011;39319;52.944;5.928;2022-11-18T08:10:31;41.05;;;32.80;;
53421;SDS011;39319;52.944;5.928;2022-11-18T08:12:57;44.83;;;33.90;;
53421;SDS011;39319;52.944;5.928;2022-11-18T08:15:24;42.25;;;33.88;;
53421;SDS011;39319;52.944;5.928;2022-11-18T08:17:49;42.03;;;33.60;;
53421;SDS011;39319;52.944;5.928;2022-11-18T08:20:16;39.65;;;32.53;;
53421;SDS011;39319;52.944;5.928;2022-11-18T08:22:42;38.63;;;31.98;;
53421;SDS011;39319;52.944;5.928;2022-11-18T08:25:08;39.33;;;31.50;;
53421;SDS011;39319;52.944;5.928;2022-11-18T08:27:34;39.17;;;31.60;;
53421;SDS011;39319;52.944;5.928;2022-11-18T08:30:00;38.63;;;30.80;;
53421;SDS011;39319;52.944;5.928;2022-11-18T08:32:26;35.38;;;29.02;;
53421;SDS011;39319;52.944;5.928;2022-11-18T08:34:52;36.40;;;28.73;;
53421;SDS011;39319;52.944;5.928;2022-11-18T08:37:18;34.85;;;27.40;;
53421;SDS011;39319;52.944;5.928;2022-11-18T08:39:43;34.80;;;27.03;;
53421;SDS011;39319;52.944;5.928;2022-11-18T08:42:09;33.28;;;27.13;;
53421;SDS011;39319;52.944;5.928;2022-11-18T08:44:35;34.42;;;26.63;;
53421;SDS011;39319;52.944;5.928;2022-11-18T08:47:01;30.97;;;26.27;;
53421;SDS011;39319;52.944;5.928;2022-11-18T08:49:27;32.55;;;25.58;;
53421;SDS011;39319;52.944;5.928;2022-11-18T08:51:53;32.85;;;25.42;;
53421;SDS011;39319;52.944;5.928;2022-11-18T08:54:20;34.58;;;25.50;;
53421;SDS011;39319;52.944;5.928;2022-11-18T08:56:45;29.08;;;24.38;;
53421;SDS011;39319;52.944;5.928;2022-11-18T08:59:14;32.50;;;25.20;;
53421;SDS011;39319;52.944;5.928;2022-11-18T09:01:40;31.33;;;24.65;;
53421;SDS011;39319;52.944;5.928;2022-11-18T09:04:07;29.13;;;24.13;;
53421;SDS011;39319;52.944;5.928;2022-11-18T09:06:37;28.65;;;23.35;;
53421;SDS011;39319;52.944;5.928;2022-11-18T09:09:04;29.83;;;22.80;;
53421;SDS011;39319;52.944;5.928;2022-11-18T09:11:31;29.60;;;22.73;;
53421;SDS011;39319;52.944;5.928;2022-11-18T09:13:57;28.33;;;21.70;;
53421;SDS011;39319;52.944;5.928;2022-11-18T09:16:24;27.10;;;22.40;;
53421;SDS011;39319;52.944;5.928;2022-11-18T09:18:51;28.42;;;22.70;;
53421;SDS011;39319;52.944;5.928;2022-11-18T09:21:18;26.48;;;21.88;;
53421;SDS011;39319;52.944;5.928;2022-11-18T09:23:44;27.73;;;22.85;;
53421;SDS011;39319;52.944;5.928;2022-11-18T09:26:11;28.70;;;23.73;;
53421;SDS011;39319;52.944;5.928;2022-11-18T09:28:39;29.90;;;22.77;;
53421;SDS011;39319;52.944;5.928;2022-11-18T09:31:05;29.83;;;22.95;;
53421;SDS011;39319;52.944;5.928;2022-11-18T09:33:36;30.60;;;23.25;;
53421;SDS011;39319;52.944;5.928;2022-11-18T09:36:03;29.13;;;23.58;;
53421;SDS011;39319;52.944;5.928;2022-11-18T09:38:30;29.35;;;22.90;;
53421;SDS011;39319;52.944;5.928;2022-11-18T09:43:56;27.73;;;22.63;;
53421;SDS011;39319;52.944;5.928;2022-11-18T09:49:33;28.80;;;22.55;;
53421;SDS011;39319;52.944;5.928;2022-11-18T09:52:02;28.88;;;22.35;;
53421;SDS011;39319;52.944;5.928;2022-11-18T09:54:35;29.45;;;22.48;;
53421;SDS011;39319;52.944;5.928;2022-11-18T09:57:02;29.60;;;22.65;;
53421;SDS011;39319;52.944;5.928;2022-11-18T09:59:39;29.17;;;22.17;;
53421;SDS011;39319;52.944;5.928;2022-11-18T10:04:42;28.33;;;21.55;;
53421;SDS011;39319;52.944;5.928;2022-11-18T10:07:15;26.88;;;21.52;;
53421;SDS011;39319;52.944;5.928;2022-11-18T10:09:47;28.58;;;20.48;;
53421;SDS011;39319;52.944;5.928;2022-11-18T10:17:43;27.15;;;21.10;;
53421;SDS011;39319;52.944;5.928;2022-11-18T10:22:58;26.38;;;19.98;;
53421;SDS011;39319;52.944;5.928;2022-11-18T10:25:45;25.40;;;19.48;;
53421;SDS011;39319;52.944;5.928;2022-11-18T10:28:20;26.02;;;19.38;;
53421;SDS011;39319;52.944;5.928;2022-11-18T10:30:46;25.08;;;19.45;;
53421;SDS011;39319;52.944;5.928;2022-11-18T10:33:23;23.87;;;18.73;;
53421;SDS011;39319;52.944;5.928;2022-11-18T10:35:51;25.20;;;19.60;;
53421;SDS011;39319;52.944;5.928;2022-11-18T10:41:42;23.70;;;17.77;;
53421;SDS011;39319;52.944;5.928;2022-11-18T10:50:25;24.15;;;18.92;;
53421;SDS011;39319;52.944;5.928;2022-11-18T10:52:53;24.30;;;19.33;;
53421;SDS011;39319;52.944;5.928;2022-11-18T10:55:20;25.02;;;18.88;;
53421;SDS011;39319;52.944;5.928;2022-11-18T10:57:49;22.83;;;18.08;;
53421;SDS011;39319;52.944;5.928;2022-11-18T11:03:26;24.33;;;17.57;;
53421;SDS011;39319;52.944;5.928;2022-11-18T11:06:13;25.33;;;18.65;;
53421;SDS011;39319;52.944;5.928;2022-11-18T11:08:49;23.83;;;17.77;;
53421;SDS011;39319;52.944;5.928;2022-11-18T11:11:26;23.15;;;18.17;;
53421;SDS011;39319;52.944;5.928;2022-11-18T11:16:42;25.27;;;18.60;;
53421;SDS011;39319;52.944;5.928;2022-11-18T11:19:13;25.05;;;18.25;;
53421;SDS011;39319;52.944;5.928;2022-11-18T11:21:43;25.48;;;18.00;;
53421;SDS011;39319;52.944;5.928;2022-11-18T11:24:10;23.17;;;17.10;;
53421;SDS011;39319;52.944;5.928;2022-11-18T11:37:57;23.23;;;17.07;;
53421;SDS011;39319;52.944;5.928;2022-11-18T11:43:13;22.27;;;16.60;;
53421;SDS011;39319;52.944;5.928;2022-11-18T11:51:00;19.13;;;14.02;;
53421;SDS011;39319;52.944;5.928;2022-11-18T11:54:08;18.27;;;14.07;;
53421;SDS011;39319;52.944;5.928;2022-11-18T11:57:28;18.15;;;14.02;;
53421;SDS011;39319;52.944;5.928;2022-11-18T12:00:15;18.02;;;14.23;;
53421;SDS011;39319;52.944;5.928;2022-11-18T12:05:35;18.35;;;14.60;;
53421;SDS011;39319;52.944;5.928;2022-11-18T12:08:18;18.92;;;14.55;;
53421;SDS011;39319;52.944;5.928;2022-11-18T12:10:56;20.60;;;14.75;;
53421;SDS011;39319;52.944;5.928;2022-11-18T12:16:32;19.73;;;14.77;;
53421;SDS011;39319;52.944;5.928;2022-11-18T12:19:13;20.83;;;15.02;;
53421;SDS011;39319;52.944;5.928;2022-11-18T12:26:48;22.48;;;16.27;;
53421;SDS011;39319;52.944;5.928;2022-11-18T12:31:47;21.60;;;16.05;;
53421;SDS011;39319;52.944;5.928;2022-11-18T12:42:40;21.60;;;16.48;;
53421;SDS011;39319;52.944;5.928;2022-11-18T12:50:49;21.27;;;16.45;;
53421;SDS011;39319;52.944;5.928;2022-11-18T12:58:49;21.35;;;16.20;;
53421;SDS011;39319;52.944;5.928;2022-11-18T13:01:18;22.70;;;16.13;;
53421;SDS011;39319;52.944;5.928;2022-11-18T13:03:46;21.67;;;16.25;;
53421;SDS011;39319;52.944;5.928;2022-11-18T13:06:25;20.90;;;16.87;;
53421;SDS011;39319;52.944;5.928;2022-11-18T13:08:58;20.10;;;15.75;;
53421;SDS011;39319;52.944;5.928;2022-11-18T13:11:27;19.43;;;15.63;;
53421;SDS011;39319;52.944;5.928;2022-11-18T13:14:13;18.65;;;14.82;;
53421;SDS011;39319;52.944;5.928;2022-11-18T13:17:21;19.05;;;15.77;;
53421;SDS011;39319;52.944;5.928;2022-11-18T13:20:31;18.83;;;14.17;;
53421;SDS011;39319;52.944;5.928;2022-11-18T13:23:03;17.50;;;14.02;;
53421;SDS011;39319;52.944;5.928;2022-11-18T13:25:51;18.17;;;14.00;;
53421;SDS011;39319;52.944;5.928;2022-11-18T13:31:01;17.17;;;12.20;;
53421;SDS011;39319;52.944;5.928;2022-11-18T13:33:34;16.05;;;11.73;;
53421;SDS011;39319;52.944;5.928;2022-11-18T13:36:01;15.23;;;12.32;;
53421;SDS011;39319;52.944;5.928;2022-11-18T13:38:27;16.90;;;11.80;;
53421;SDS011;39319;52.944;5.928;2022-11-18T13:40:53;14.98;;;11.63;;
53421;SDS011;39319;52.944;5.928;2022-11-18T13:43:38;15.00;;;11.30;;
53421;SDS011;39319;52.944;5.928;2022-11-18T13:46:07;15.05;;;11.32;;
53421;SDS011;39319;52.944;5.928;2022-11-18T13:48:39;14.93;;;11.00;;
53421;SDS011;39319;52.944;5.928;2022-11-18T13:51:10;15.55;;;11.23;;
53421;SDS011;39319;52.944;5.928;2022-11-18T13:53:37;16.55;;;11.32;;
53421;SDS011;39319;52.944;5.928;2022-11-18T13:56:05;16.63;;;11.35;;
53421;SDS011;39319;52.944;5.928;2022-11-18T13:58:36;16.23;;;11.77;;
53421;SDS011;39319;52.944;5.928;2022-11-18T14:01:04;17.23;;;11.75;;
53421;SDS011;39319;52.944;5.928;2022-11-18T14:08:50;18.87;;;13.40;;
53421;SDS011;39319;52.944;5.928;2022-11-18T14:11:34;15.85;;;12.25;;
53421;SDS011;39319;52.944;5.928;2022-11-18T14:14:00;19.02;;;13.38;;
53421;SDS011;39319;52.944;5.928;2022-11-18T14:16:31;17.90;;;13.10;;
53421;SDS011;39319;52.944;5.928;2022-11-18T14:18:59;19.27;;;13.63;;
53421;SDS011;39319;52.944;5.928;2022-11-18T14:21:29;20.40;;;13.75;;
53421;SDS011;39319;52.944;5.928;2022-11-18T14:23:56;22.08;;;14.82;;
53421;SDS011;39319;52.944;5.928;2022-11-18T14:29:16;20.40;;;15.10;;
53421;SDS011;39319;52.944;5.928;2022-11-18T14:34:58;20.73;;;14.70;;
53421;SDS011;39319;52.944;5.928;2022-11-18T14:37:24;20.88;;;14.55;;
53421;SDS011;39319;52.944;5.928;2022-11-18T14:39:54;20.67;;;14.38;;
53421;SDS011;39319;52.944;5.928;2022-11-18T14:42:22;20.00;;;15.02;;
53421;SDS011;39319;52.944;5.928;2022-11-18T14:44:48;21.45;;;15.60;;
53421;SDS011;39319;52.944;5.928;2022-11-18T14:47:25;21.23;;;15.20;;
53421;SDS011;39319;52.944;5.928;2022-11-18T14:49:52;19.90;;;15.00;;
53421;SDS011;39319;52.944;5.928;2022-11-18T14:52:18;21.58;;;15.23;;
53421;SDS011;39319;52.944;5.928;2022-11-18T14:54:44;24.27;;;15.67;;
53421;SDS011;39319;52.944;5.928;2022-11-18T14:57:13;25.42;;;17.33;;
53421;SDS011;39319;52.944;5.928;2022-11-18T14:59:41;22.30;;;16.90;;
53421;SDS011;39319;52.944;5.928;2022-11-18T15:02:14;23.50;;;17.30;;
53421;SDS011;39319;52.944;5.928;2022-11-18T15:04:41;25.50;;;17.25;;
53421;SDS011;39319;52.944;5.928;2022-11-18T15:07:11;23.02;;;16.77;;
53421;SDS011;39319;52.944;5.928;2022-11-18T15:09:41;23.48;;;16.60;;
53421;SDS011;39319;52.944;5.928;2022-11-18T15:12:07;21.77;;;16.90;;
53421;SDS011;39319;52.944;5.928;2022-11-18T15:14:33;24.30;;;17.03;;
53421;SDS011;39319;52.944;5.928;2022-11-18T15:17:00;24.23;;;17.40;;
53421;SDS011;39319;52.944;5.928;2022-11-18T15:19:29;22.90;;;16.63;;
53421;SDS011;39319;52.944;5.928;2022-11-18T15:21:55;23.50;;;17.30;;
53421;SDS011;39319;52.944;5.928;2022-11-18T15:24:21;22.60;;;16.93;;
53421;SDS011;39319;52.944;5.928;2022-11-18T15:26:47;24.00;;;17.30;;
53421;SDS011;39319;52.944;5.928;2022-11-18T15:29:20;24.08;;;17.58;;
53421;SDS011;39319;52.944;5.928;2022-11-18T15:31:47;26.60;;;18.95;;
53421;SDS011;39319;52.944;5.928;2022-11-18T15:34:13;23.85;;;17.60;;
53421;SDS011;39319;52.944;5.928;2022-11-18T15:36:40;25.13;;;18.00;;
53421;SDS011;39319;52.944;5.928;2022-11-18T15:39:06;23.88;;;17.38;;
53421;SDS011;39319;52.944;5.928;2022-11-18T15:41:34;22.60;;;17.30;;
53421;SDS011;39319;52.944;5.928;2022-11-18T15:44:03;24.15;;;17.85;;
53421;SDS011;39319;52.944;5.928;2022-11-18T15:46:30;22.40;;;17.25;;
53421;SDS011;39319;52.944;5.928;2022-11-18T15:48:58;22.52;;;16.55;;
53421;SDS011;39319;52.944;5.928;2022-11-18T15:51:25;24.67;;;18.30;;
53421;SDS011;39319;52.944;5.928;2022-11-18T15:53:52;23.55;;;18.30;;
53421;SDS011;39319;52.944;5.928;2022-11-18T15:58:57;24.02;;;17.67;;
53421;SDS011;39319;52.944;5.928;2022-11-18T16:01:30;23.45;;;16.83;;
53421;SDS011;39319;52.944;5.928;2022-11-18T16:03:57;21.65;;;15.52;;
53421;SDS011;39319;52.944;5.928;2022-11-18T16:06:23;22.75;;;17.25;;
53421;SDS011;39319;52.944;5.928;2022-11-18T16:08:49;23.08;;;17.45;;
53421;SDS011;39319;52.944;5.928;2022-11-18T16:11:21;24.02;;;18.08;;
53421;SDS011;39319;52.944;5.928;2022-11-18T16:14:09;24.88;;;19.00;;
53421;SDS011;39319;52.944;5.928;2022-11-18T16:16:37;24.95;;;18.23;;
53421;SDS011;39319;52.944;5.928;2022-11-18T16:19:07;21.55;;;16.20;;
53421;SDS011;39319;52.944;5.928;2022-11-18T16:21:35;23.67;;;16.60;;
53421;SDS011;39319;52.944;5.928;2022-11-18T16:24:06;24.05;;;17.77;;
53421;SDS011;39319;52.944;5.928;2022-11-18T16:26:35;22.67;;;17.20;;
53421;SDS011;39319;52.944;5.928;2022-11-18T16:29:01;24.35;;;17.63;;
53421;SDS011;39319;52.944;5.928;2022-11-18T16:31:28;24.25;;;18.05;;
53421;SDS011;39319;52.944;5.928;2022-11-18T16:34:12;22.23;;;17.33;;
53421;SDS011;39319;52.944;5.928;2022-11-18T16:36:41;22.60;;;17.50;;
53421;SDS011;39319;52.944;5.928;2022-11-18T16:41:38;25.45;;;18.98;;
53421;SDS011;39319;52.944;5.928;2022-11-18T16:44:08;24.15;;;18.58;;
53421;SDS011;39319;52.944;5.928;2022-11-18T16:46:36;23.70;;;18.58;;
53421;SDS011;39319;52.944;5.928;2022-11-18T16:49:03;23.25;;;18.25;;
53421;SDS011;39319;52.944;5.928;2022-11-18T16:51:31;22.85;;;18.15;;
53421;SDS011;39319;52.944;5.928;2022-11-18T16:53:59;22.98;;;17.60;;
53421;SDS011;39319;52.944;5.928;2022-11-18T16:56:27;24.35;;;18.83;;
53421;SDS011;39319;52.944;5.928;2022-11-18T16:58:59;23.25;;;18.48;;